createdAt,value
2022-09-27T00:00:45.479Z,12.80
2022-09-27T00:03:12.797Z,12.80
2022-09-27T00:05:40.228Z,12.80
2022-09-27T00:08:07.047Z,12.70
2022-09-27T00:10:33.765Z,12.60
2022-09-27T00:13:00.456Z,12.60
2022-09-27T00:15:27.133Z,12.50
2022-09-27T00:17:53.775Z,12.50
2022-09-27T00:20:21.252Z,12.50
2022-09-27T00:22:49.001Z,12.50
2022-09-27T00:25:16.679Z,12.50
2022-09-27T00:27:43.252Z,12.50
2022-09-27T00:30:11.170Z,12.60
2022-09-27T00:32:38.103Z,12.50
2022-09-27T00:35:05.212Z,12.50
2022-09-27T00:37:32.203Z,12.50
2022-09-27T00:39:58.761Z,12.50
2022-09-27T00:42:25.351Z,12.50
2022-09-27T00:45:02.012Z,12.50
2022-09-27T00:47:48.046Z,12.40
2022-09-27T00:50:29.806Z,12.40
2022-09-27T00:53:08.943Z,12.40
2022-09-27T00:55:41.086Z,12.30
2022-09-27T00:58:08.980Z,12.30
2022-09-27T01:00:40.011Z,12.20
2022-09-27T01:03:09.299Z,12.20
2022-09-27T01:05:36.641Z,12.20
2022-09-27T01:08:04.136Z,12.20
2022-09-27T01:10:39.699Z,12.20
2022-09-27T01:13:20.562Z,9.90
2022-09-27T01:16:00.676Z,12.10
2022-09-27T01:18:38.114Z,12.10
2022-09-27T01:21:21.577Z,12.10
2022-09-27T01:23:54.863Z,12.30
2022-09-27T01:26:42.681Z,12.30
2022-09-27T01:29:43.724Z,12.20
2022-09-27T01:32:27.146Z,12.20
2022-09-27T01:35:37.312Z,12.20
2022-09-27T01:38:16.324Z,12.20
2022-09-27T01:40:54.661Z,12.20
2022-09-27T01:43:42.274Z,12.20
2022-09-27T01:46:13.935Z,12.40
2022-09-27T01:48:45.491Z,12.30
2022-09-27T01:51:21.079Z,12.40
2022-09-27T01:53:52.134Z,11.80
2022-09-27T01:56:33.134Z,12.50
2022-09-27T01:59:18.125Z,12.40
2022-09-27T02:01:48.797Z,12.40
2022-09-27T02:04:21.688Z,12.40
2022-09-27T02:06:53.448Z,12.40
2022-09-27T02:09:30.730Z,12.50
2022-09-27T02:12:04.507Z,12.40
2022-09-27T02:14:41.920Z,12.50
2022-09-27T02:17:30.304Z,12.60
2022-09-27T02:20:15.776Z,12.50
2022-09-27T02:22:50.582Z,12.50
2022-09-27T02:25:44.417Z,12.40
2022-09-27T02:28:25.875Z,12.40
2022-09-27T02:30:52.846Z,12.50
2022-09-27T02:33:23.550Z,12.50
2022-09-27T02:35:50.119Z,12.50
2022-09-27T02:38:16.832Z,12.50
2022-09-27T02:40:47.906Z,12.50
2022-09-27T02:43:17.519Z,12.50
2022-09-27T02:46:08.183Z,12.50
2022-09-27T02:48:50.565Z,12.60
2022-09-27T02:51:41.394Z,12.60
2022-09-27T02:54:33.756Z,12.60
2022-09-27T02:57:31.941Z,12.60
2022-09-27T03:00:09.350Z,12.70
2022-09-27T03:02:53.132Z,12.70
2022-09-27T03:05:40.334Z,12.70
2022-09-27T03:08:07.616Z,12.70
2022-09-27T03:10:34.203Z,12.60
2022-09-27T03:13:01.019Z,12.60
2022-09-27T03:15:27.606Z,12.60
2022-09-27T03:17:54.143Z,12.50
2022-09-27T03:20:20.681Z,12.60
2022-09-27T03:22:47.351Z,12.50
2022-09-27T03:25:14.096Z,12.50
2022-09-27T03:27:40.617Z,12.60
2022-09-27T03:30:07.650Z,12.60
2022-09-27T03:32:34.213Z,12.60
2022-09-27T03:35:00.758Z,12.70
2022-09-27T03:37:29.383Z,12.70
2022-09-27T03:39:56.014Z,12.60
2022-09-27T03:42:22.560Z,12.60
2022-09-27T03:44:51.153Z,12.60
2022-09-27T03:47:17.697Z,12.60
2022-09-27T03:49:44.308Z,12.60
2022-09-27T03:52:10.880Z,12.70
2022-09-27T03:54:37.437Z,12.80
2022-09-27T03:57:05.486Z,12.80
2022-09-27T03:59:32.111Z,12.80
2022-09-27T04:01:58.862Z,12.90
2022-09-27T04:04:25.523Z,12.90
2022-09-27T04:06:52.116Z,12.70
2022-09-27T04:09:18.719Z,12.70
2022-09-27T04:11:45.274Z,15.00
2022-09-27T04:14:13.045Z,12.80
2022-09-27T04:16:40.499Z,12.80
2022-09-27T04:19:08.134Z,12.70
2022-09-27T04:21:35.451Z,12.70
2022-09-27T04:24:02.261Z,12.70
2022-09-27T04:26:28.801Z,12.70
2022-09-27T04:28:55.386Z,12.60
2022-09-27T04:31:22.864Z,12.60
2022-09-27T04:33:49.768Z,12.60
2022-09-27T04:36:28.933Z,12.40
2022-09-27T04:38:57.395Z,12.60
2022-09-27T04:41:25.472Z,12.60
2022-09-27T04:43:56.732Z,12.60
2022-09-27T04:46:25.992Z,12.60
2022-09-27T04:48:52.696Z,12.60
2022-09-27T04:51:20.069Z,12.60
2022-09-27T04:53:47.461Z,12.60
2022-09-27T04:56:14.704Z,12.50
2022-09-27T04:58:41.324Z,12.40
2022-09-27T05:01:09.262Z,12.40
2022-09-27T05:03:36.432Z,12.40
2022-09-27T05:06:03.029Z,12.40
2022-09-27T05:08:29.961Z,12.30
2022-09-27T05:10:56.739Z,12.30
2022-09-27T05:13:23.444Z,12.20
2022-09-27T05:15:50.052Z,12.20
2022-09-27T05:18:18.064Z,12.20
2022-09-27T05:20:45.009Z,12.20
2022-09-27T05:23:11.904Z,12.20
2022-09-27T05:25:38.660Z,12.20
2022-09-27T05:28:06.091Z,12.20
2022-09-27T05:30:32.764Z,12.20
2022-09-27T05:32:59.370Z,12.10
2022-09-27T05:35:26.336Z,12.10
2022-09-27T05:37:55.122Z,12.00
2022-09-27T05:40:41.979Z,12.00
2022-09-27T05:43:09.537Z,12.10
2022-09-27T05:45:36.712Z,12.00
2022-09-27T05:48:04.150Z,11.90
2022-09-27T05:50:31.170Z,11.90
2022-09-27T05:52:57.944Z,11.90
2022-09-27T05:55:24.561Z,11.90
2022-09-27T05:57:59.262Z,11.80
2022-09-27T06:00:27.167Z,11.80
2022-09-27T06:02:58.932Z,11.80
2022-09-27T06:05:27.649Z,11.90
2022-09-27T06:07:59.673Z,11.90
2022-09-27T06:10:26.659Z,11.90
2022-09-27T06:12:53.227Z,11.80
2022-09-27T06:15:20.114Z,11.90
2022-09-27T06:17:46.825Z,11.90
2022-09-27T06:20:13.376Z,11.70
2022-09-27T06:22:41.046Z,11.80
2022-09-27T06:25:09.658Z,11.80
2022-09-27T06:27:36.277Z,11.80
2022-09-27T06:30:03.238Z,11.90
2022-09-27T06:32:29.819Z,11.90
2022-09-27T06:34:56.438Z,11.90
2022-09-27T06:37:27.004Z,12.00
2022-09-27T06:39:54.090Z,12.00
2022-09-27T06:42:20.657Z,11.90
2022-09-27T06:44:50.522Z,12.00
2022-09-27T06:47:17.685Z,11.90
2022-09-27T06:49:44.363Z,11.80
2022-09-27T06:52:11.405Z,11.80
2022-09-27T06:54:38.074Z,11.80
2022-09-27T06:57:05.347Z,11.90
2022-09-27T07:00:00.956Z,11.90
2022-09-27T07:02:27.835Z,11.90
2022-09-27T07:04:54.657Z,11.90
2022-09-27T07:07:21.373Z,11.90
2022-09-27T07:09:48.070Z,11.90
2022-09-27T07:12:14.645Z,11.80
2022-09-27T07:14:41.287Z,11.90
2022-09-27T07:17:08.298Z,11.90
2022-09-27T07:19:34.970Z,11.90
2022-09-27T07:22:01.599Z,12.00
2022-09-27T07:24:28.173Z,12.00
2022-09-27T07:26:54.719Z,11.90
2022-09-27T07:29:21.463Z,12.10
2022-09-27T07:31:48.009Z,12.00
2022-09-27T07:34:15.066Z,12.00
2022-09-27T07:36:41.610Z,12.10
2022-09-27T07:39:09.775Z,12.00
2022-09-27T07:41:36.367Z,12.00
2022-09-27T07:44:03.070Z,11.90
2022-09-27T07:46:30.527Z,11.80
2022-09-27T07:48:57.189Z,11.80
2022-09-27T07:51:24.093Z,11.80
2022-09-27T07:53:50.706Z,11.90
2022-09-27T07:56:17.296Z,11.80
2022-09-27T07:58:43.963Z,11.90
2022-09-27T08:01:10.526Z,11.80
2022-09-27T08:03:37.978Z,11.90
2022-09-27T08:06:04.766Z,11.80
2022-09-27T08:08:31.433Z,11.90
2022-09-27T08:10:58.866Z,12.00
2022-09-27T08:13:25.404Z,12.10
2022-09-27T08:15:52.732Z,12.10
2022-09-27T08:18:21.859Z,12.10
2022-09-27T08:20:48.457Z,12.40
2022-09-27T08:23:15.013Z,12.10
2022-09-27T08:25:42.518Z,12.90
2022-09-27T08:28:09.760Z,12.20
2022-09-27T08:30:36.350Z,12.20
2022-09-27T08:33:03.862Z,12.10
2022-09-27T08:35:33.702Z,12.10
2022-09-27T08:38:02.289Z,12.10
2022-09-27T08:40:55.804Z,12.20
2022-09-27T08:43:41.359Z,12.20
2022-09-27T08:46:20.623Z,12.20
2022-09-27T08:48:52.633Z,12.10
2022-09-27T08:51:25.839Z,12.10
2022-09-27T08:54:01.590Z,12.20
2022-09-27T08:56:28.406Z,12.20
2022-09-27T08:59:39.572Z,12.20
2022-09-27T09:02:16.289Z,12.30
2022-09-27T09:04:43.077Z,12.30
2022-09-27T09:07:27.496Z,12.30
2022-09-27T09:10:14.799Z,12.30
2022-09-27T09:13:00.198Z,12.30
2022-09-27T09:15:32.560Z,12.30
2022-09-27T09:18:09.147Z,12.30
2022-09-27T09:21:04.199Z,12.20
2022-09-27T09:24:12.984Z,12.20
2022-09-27T09:26:53.064Z,12.30
2022-09-27T09:29:29.677Z,12.30
2022-09-27T09:32:44.623Z,12.30
2022-09-27T09:35:18.947Z,12.30
2022-09-27T09:37:51.036Z,12.50
2022-09-27T09:40:30.346Z,12.50
2022-09-27T09:43:04.951Z,12.50
2022-09-27T09:45:36.365Z,12.70
2022-09-27T09:48:15.299Z,12.70
2022-09-27T09:50:46.982Z,12.80
2022-09-27T09:53:20.442Z,12.90
2022-09-27T09:55:55.614Z,13.00
2022-09-27T09:58:36.838Z,13.00
2022-09-27T10:01:19.251Z,12.90
2022-09-27T10:03:46.622Z,12.90
2022-09-27T10:06:14.516Z,12.90
2022-09-27T10:08:41.566Z,12.90
2022-09-27T10:11:22.826Z,12.90
2022-09-27T10:13:49.507Z,12.90
2022-09-27T10:16:20.138Z,12.60
2022-09-27T10:18:50.121Z,12.90
2022-09-27T10:21:27.955Z,13.00
2022-09-27T10:24:16.562Z,13.00
2022-09-27T10:26:47.229Z,12.70
2022-09-27T10:29:19.826Z,13.50
2022-09-27T10:31:48.362Z,13.60
2022-09-27T10:34:31.838Z,13.50
2022-09-27T10:37:07.516Z,13.80
2022-09-27T10:39:35.558Z,13.60
2022-09-27T10:42:02.181Z,13.40
2022-09-27T10:44:32.477Z,13.50
2022-09-27T10:47:06.818Z,13.70
2022-09-27T10:49:39.515Z,13.90
2022-09-27T10:52:18.377Z,13.80
2022-09-27T10:55:01.574Z,14.10
2022-09-27T10:57:30.001Z,14.30
2022-09-27T10:59:59.778Z,14.40
2022-09-27T11:02:37.743Z,14.40
2022-09-27T11:05:15.403Z,14.30
2022-09-27T11:07:52.594Z,14.30
2022-09-27T11:10:36.272Z,14.30
2022-09-27T11:13:15.643Z,14.20
2022-09-27T11:16:08.757Z,14.20
2022-09-27T11:18:50.098Z,14.20
2022-09-27T11:21:49.907Z,14.10
2022-09-27T11:25:04.831Z,13.80
2022-09-27T11:27:45.775Z,13.70
2022-09-27T11:30:19.284Z,13.70
2022-09-27T11:33:16.474Z,13.50
2022-09-27T11:36:04.930Z,13.40
2022-09-27T11:39:00.494Z,13.30
2022-09-27T11:42:06.335Z,13.20
2022-09-27T11:44:38.570Z,13.00
2022-09-27T11:47:35.233Z,13.00
2022-09-27T11:50:19.975Z,13.10
2022-09-27T11:53:24.837Z,13.00
2022-09-27T11:56:23.237Z,12.80
2022-09-27T11:59:10.461Z,12.70
2022-09-27T12:02:06.796Z,12.50
2022-09-27T12:05:14.110Z,12.40
2022-09-27T12:08:18.123Z,12.20
2022-09-27T12:10:50.248Z,11.80
2022-09-27T12:13:30.145Z,11.60
2022-09-27T12:15:57.300Z,11.40
2022-09-27T12:18:32.117Z,11.20
2022-09-27T12:21:03.151Z,11.20
2022-09-27T12:23:51.892Z,11.20
2022-09-27T12:26:23.817Z,11.20
2022-09-27T12:29:06.361Z,11.20
2022-09-27T12:31:56.225Z,11.30
2022-09-27T12:34:31.396Z,11.50
2022-09-27T12:37:13.029Z,11.50
2022-09-27T12:39:42.737Z,11.50
2022-09-27T12:42:19.922Z,11.40
2022-09-27T12:44:50.845Z,11.50
2022-09-27T12:47:27.884Z,11.70
2022-09-27T12:50:30.088Z,11.90
2022-09-27T12:53:23.296Z,12.00
2022-09-27T12:56:03.513Z,12.30
2022-09-27T12:58:57.798Z,12.40
2022-09-27T13:01:42.605Z,12.60
2022-09-27T13:04:48.863Z,12.60
2022-09-27T13:07:57.078Z,12.60
2022-09-27T13:10:57.966Z,12.60
2022-09-27T13:13:27.468Z,12.60
2022-09-27T13:15:59.002Z,12.80
2022-09-27T13:18:47.483Z,13.00
2022-09-27T13:21:45.996Z,15.30
2022-09-27T13:24:37.991Z,13.10
2022-09-27T13:27:27.806Z,13.10
2022-09-27T13:30:12.553Z,13.20
2022-09-27T13:32:40.835Z,13.30
2022-09-27T13:35:21.106Z,12.70
2022-09-27T13:37:59.655Z,13.00
2022-09-27T13:40:37.379Z,13.00
2022-09-27T13:43:13.246Z,13.00
2022-09-27T13:45:56.989Z,12.90
2022-09-27T13:48:33.761Z,12.80
2022-09-27T13:51:13.280Z,12.70
2022-09-27T13:53:46.443Z,12.70
2022-09-27T13:56:38.309Z,12.50
2022-09-27T13:59:11.600Z,12.50
2022-09-27T14:01:59.183Z,12.50
2022-09-27T14:04:35.399Z,12.10
2022-09-27T14:07:03.871Z,11.00
2022-09-27T14:09:39.928Z,12.40
2022-09-27T14:12:11.911Z,12.50
2022-09-27T14:14:41.378Z,12.60
2022-09-27T14:17:12.761Z,12.80
2022-09-27T14:19:41.923Z,12.80
2022-09-27T14:22:19.836Z,12.80
2022-09-27T14:24:49.163Z,12.80
2022-09-27T14:27:22.915Z,12.50
2022-09-27T14:29:56.607Z,12.30
2022-09-27T14:32:28.988Z,12.40
2022-09-27T14:35:36.494Z,12.30
2022-09-27T14:38:26.522Z,12.30
2022-09-27T14:40:53.206Z,12.30
2022-09-27T14:43:21.324Z,12.40
2022-09-27T14:45:51.500Z,12.30
2022-09-27T14:48:29.979Z,12.20
2022-09-27T14:51:04.809Z,12.20
2022-09-27T14:53:42.337Z,12.20
2022-09-27T14:56:32.145Z,12.30
2022-09-27T14:59:02.963Z,12.40
2022-09-27T15:01:30.291Z,12.30
2022-09-27T15:04:04.386Z,12.30
2022-09-27T15:06:31.471Z,12.40
2022-09-27T15:08:59.755Z,12.60
2022-09-27T15:11:27.994Z,12.50
2022-09-27T15:13:55.063Z,12.40
2022-09-27T15:16:23.604Z,12.30
2022-09-27T15:19:00.434Z,12.30
2022-09-27T15:21:36.477Z,12.20
2022-09-27T15:24:04.027Z,12.20
2022-09-27T15:26:42.546Z,12.20
2022-09-27T15:29:24.507Z,12.30
2022-09-27T15:32:05.254Z,12.20
2022-09-27T15:34:34.353Z,12.10
2022-09-27T15:37:06.185Z,12.20
2022-09-27T15:39:33.999Z,12.20
2022-09-27T15:42:09.016Z,14.30
2022-09-27T15:44:43.417Z,12.00
2022-09-27T15:47:32.251Z,12.00
2022-09-27T15:49:59.429Z,12.10
2022-09-27T15:52:51.154Z,12.00
2022-09-27T15:55:25.329Z,12.00
2022-09-27T15:57:59.764Z,12.10
2022-09-27T16:00:27.181Z,12.20
2022-09-27T16:02:54.123Z,12.10
2022-09-27T16:05:20.926Z,12.20
2022-09-27T16:07:47.733Z,12.30
2022-09-27T16:10:23.516Z,12.30
2022-09-27T16:12:50.975Z,12.00
2022-09-27T16:15:17.945Z,11.70
2022-09-27T16:17:44.631Z,11.60
2022-09-27T16:20:25.004Z,11.30
2022-09-27T16:22:53.998Z,11.20
2022-09-27T16:25:21.714Z,10.90
2022-09-27T16:27:48.833Z,10.70
2022-09-27T16:30:16.161Z,11.20
2022-09-27T16:32:47.753Z,11.00
2022-09-27T16:35:15.917Z,11.00
2022-09-27T16:37:42.973Z,11.00
2022-09-27T16:40:11.719Z,11.00
2022-09-27T16:42:38.924Z,11.00
2022-09-27T16:45:10.527Z,10.90
2022-09-27T16:47:39.538Z,10.80
2022-09-27T16:50:25.202Z,10.70
2022-09-27T16:52:52.446Z,10.70
2022-09-27T16:55:20.800Z,10.70
2022-09-27T16:57:48.301Z,10.60
2022-09-27T17:00:15.899Z,10.60
2022-09-27T17:02:47.062Z,10.60
2022-09-27T17:05:14.697Z,10.10
2022-09-27T17:07:41.293Z,10.70
2022-09-27T17:10:08.240Z,10.60
2022-09-27T17:12:35.225Z,10.70
2022-09-27T17:15:01.831Z,10.60
2022-09-27T17:17:28.426Z,10.80
2022-09-27T17:19:55.118Z,10.70
2022-09-27T17:22:21.696Z,10.60
2022-09-27T17:24:48.258Z,10.50
2022-09-27T17:27:14.858Z,10.50
2022-09-27T17:29:41.415Z,10.50
2022-09-27T17:32:08.706Z,10.50
2022-09-27T17:34:36.229Z,10.40
2022-09-27T17:37:02.882Z,10.50
2022-09-27T17:39:29.459Z,10.40
2022-09-27T17:41:55.997Z,9.80
2022-09-27T17:44:23.804Z,10.40
2022-09-27T17:47:10.351Z,10.20
2022-09-27T17:50:00.219Z,10.20
2022-09-27T17:52:26.912Z,10.20
2022-09-27T17:54:55.617Z,10.20
2022-09-27T17:57:22.238Z,10.20
2022-09-27T17:59:48.849Z,10.20
2022-09-27T18:02:15.613Z,10.20
2022-09-27T18:04:42.368Z,10.20
2022-09-27T18:07:08.909Z,10.10
2022-09-27T18:09:37.158Z,10.10
2022-09-27T18:12:03.983Z,10.00
2022-09-27T18:14:31.087Z,10.00
2022-09-27T18:16:58.064Z,10.00
2022-09-27T18:19:24.806Z,9.50
2022-09-27T18:21:51.622Z,9.10
2022-09-27T18:24:21.456Z,9.90
2022-09-27T18:26:48.904Z,9.90
2022-09-27T18:29:20.933Z,10.00
2022-09-27T18:31:49.098Z,10.00
2022-09-27T18:34:19.260Z,10.10
2022-09-27T18:36:46.086Z,10.00
2022-09-27T18:39:17.476Z,9.90
2022-09-27T18:41:45.277Z,10.10
2022-09-27T18:44:14.142Z,10.10
2022-09-27T18:46:41.137Z,10.10
2022-09-27T18:49:10.638Z,10.20
2022-09-27T18:51:41.785Z,10.20
2022-09-27T18:54:16.264Z,10.20
2022-09-27T18:56:43.028Z,10.20
2022-09-27T18:59:10.435Z,10.10
2022-09-27T19:01:39.973Z,9.90
2022-09-27T19:04:08.227Z,10.10
2022-09-27T19:06:36.120Z,10.00
2022-09-27T19:09:04.604Z,9.00
2022-09-27T19:11:31.575Z,10.00
2022-09-27T19:13:58.866Z,10.00
2022-09-27T19:16:27.728Z,10.00
2022-09-27T19:18:54.683Z,10.00
2022-09-27T19:21:27.182Z,9.90
2022-09-27T19:23:54.321Z,10.00
2022-09-27T19:26:23.330Z,10.00
2022-09-27T19:28:51.445Z,10.00
2022-09-27T19:31:23.590Z,9.90
2022-09-27T19:33:52.400Z,9.80
2022-09-27T19:36:20.906Z,9.90
2022-09-27T19:38:49.147Z,9.90
2022-09-27T19:41:16.674Z,9.90
2022-09-27T19:43:47.385Z,9.50
2022-09-27T19:46:17.194Z,9.80
2022-09-27T19:48:45.552Z,9.70
2022-09-27T19:51:17.503Z,9.70
2022-09-27T19:53:44.524Z,9.60
2022-09-27T19:56:12.276Z,9.70
2022-09-27T19:58:40.124Z,9.60
2022-09-27T20:01:08.362Z,9.70
2022-09-27T20:03:37.496Z,9.70
2022-09-27T20:06:06.167Z,9.70
2022-09-27T20:08:32.960Z,9.70
2022-09-27T20:11:06.612Z,9.70
2022-09-27T20:13:34.526Z,9.70
2022-09-27T20:16:07.007Z,9.70
2022-09-27T20:18:34.678Z,9.80
2022-09-27T20:21:03.573Z,9.80
2022-09-27T20:23:31.906Z,9.70
2022-09-27T20:26:07.491Z,9.80
2022-09-27T20:28:44.711Z,9.70
2022-09-27T20:31:13.010Z,9.60
2022-09-27T20:33:43.592Z,9.40
2022-09-27T20:36:15.629Z,9.50
2022-09-27T20:38:44.523Z,9.40
2022-09-27T20:41:12.320Z,9.40
2022-09-27T20:43:39.424Z,9.30
2022-09-27T20:46:08.477Z,9.30
2022-09-27T20:48:37.505Z,9.30
2022-09-27T20:51:05.055Z,9.20
2022-09-27T20:53:32.342Z,9.30
2022-09-27T20:56:02.600Z,9.30
2022-09-27T20:58:30.549Z,9.40
2022-09-27T21:00:57.658Z,9.40
2022-09-27T21:03:24.289Z,9.60
2022-09-27T21:05:57.838Z,9.60
2022-09-27T21:08:25.026Z,9.80
2022-09-27T21:10:53.761Z,9.90
2022-09-27T21:13:21.013Z,9.90
2022-09-27T21:15:47.652Z,10.10
2022-09-27T21:18:15.243Z,10.10
2022-09-27T21:20:41.829Z,10.00
2022-09-27T21:23:08.479Z,9.50
2022-09-27T21:25:35.077Z,10.00
2022-09-27T21:28:04.288Z,10.00
2022-09-27T21:30:31.642Z,10.00
2022-09-27T21:32:58.209Z,10.00
2022-09-27T21:35:24.769Z,10.00
2022-09-27T21:37:51.302Z,10.00
2022-09-27T21:40:18.112Z,10.00
2022-09-27T21:42:44.748Z,9.90
2022-09-27T21:45:11.526Z,9.80
2022-09-27T21:47:40.417Z,9.90
2022-09-27T21:50:07.478Z,10.00
2022-09-27T21:52:34.095Z,10.10
2022-09-27T21:55:00.622Z,10.10
2022-09-27T21:57:27.222Z,10.00
2022-09-27T21:59:53.863Z,10.10
2022-09-27T22:02:20.446Z,10.10
2022-09-27T22:04:49.262Z,10.10
2022-09-27T22:07:16.049Z,10.10
2022-09-27T22:09:42.650Z,10.10
2022-09-27T22:12:09.591Z,10.10
2022-09-27T22:14:36.175Z,10.10
2022-09-27T22:17:02.826Z,10.00
2022-09-27T22:19:29.422Z,9.90
2022-09-27T22:21:56.013Z,9.80
2022-09-27T22:24:22.873Z,9.80
2022-09-27T22:26:50.719Z,9.80
2022-09-27T22:29:17.932Z,9.70
2022-09-27T22:31:44.582Z,9.60
2022-09-27T22:34:17.049Z,9.70
2022-09-27T22:36:44.035Z,9.70
2022-09-27T22:39:10.867Z,9.70
2022-09-27T22:41:38.169Z,9.70
2022-09-27T22:44:04.897Z,9.70
2022-09-27T22:46:31.507Z,9.70
2022-09-27T22:48:58.205Z,9.70
2022-09-27T22:51:24.931Z,9.60
2022-09-27T22:53:51.522Z,9.60
2022-09-27T22:56:20.200Z,9.50
2022-09-27T22:58:48.012Z,9.50
2022-09-27T23:01:22.733Z,9.40
2022-09-27T23:03:52.761Z,9.40
2022-09-27T23:06:20.954Z,9.40
2022-09-27T23:08:47.645Z,9.40
2022-09-27T23:11:17.799Z,9.70
2022-09-27T23:13:45.384Z,9.30
2022-09-27T23:16:14.604Z,9.30
2022-09-27T23:18:42.286Z,8.80
2022-09-27T23:21:12.401Z,9.40
2022-09-27T23:23:41.861Z,9.50
2022-09-27T23:26:11.464Z,9.30
2022-09-27T23:28:38.534Z,9.50
2022-09-27T23:31:13.594Z,9.50
2022-09-27T23:33:42.964Z,9.50
2022-09-27T23:36:12.453Z,9.60
2022-09-27T23:38:40.913Z,9.60
2022-09-27T23:41:08.380Z,8.50
2022-09-27T23:43:42.064Z,9.70
2022-09-27T23:46:09.239Z,9.80
2022-09-27T23:48:36.305Z,9.80
2022-09-27T23:51:06.747Z,9.70
2022-09-27T23:53:33.390Z,9.70
2022-09-27T23:56:02.656Z,9.70
2022-09-27T23:58:33.279Z,9.80
